Time;durP1;ratioP1;P1;durP2;ratioP2;P2;SDS_P1;SDS_P2;PMS_P1;PMS_P2;Temp;Humidity;BMP_temperature;BMP_pressure;BME280_temperature;BME280_humidity;BME280_pressure;Samples;Min_cycle;Max_cycle;Signal;HPM_P1;HPM_P2
2022/03/06 00:00:07;;;;;;;32.17;16.30;;;;;;;;;;5033197;28;20033;-70
2022/03/06 00:02:33;;;;;;;25.73;13.52;;;;;;;;;;5033387;28;20445;-68
2022/03/06 00:04:59;;;;;;;26.38;14.45;;;;;;;;;;5032565;28;20495;-70
2022/03/06 00:07:25;;;;;;;27.27;16.08;;;;;;;;;;5032810;28;20029;-70
2022/03/06 00:09:51;;;;;;;23.38;14.10;;;;;;;;;;5033196;28;20479;-72
2022/03/06 00:12:17;;;;;;;26.92;13.63;;;;;;;;;;5033036;28;20034;-69
2022/03/06 00:14:43;;;;;;;21.58;13.43;;;;;;;;;;5032357;28;20542;-70
2022/03/06 00:17:09;;;;;;;23.05;13.98;;;;;;;;;;5032555;28;20029;-70
2022/03/06 00:19:35;;;;;;;38.05;19.33;;;;;;;;;;5033058;28;20057;-70
2022/03/06 00:22:01;;;;;;;24.30;14.65;;;;;;;;;;5032342;28;20503;-71
2022/03/06 00:24:27;;;;;;;22.90;12.88;;;;;;;;;;5032207;28;20037;-70
2022/03/06 00:26:53;;;;;;;26.88;14.32;;;;;;;;;;5032310;28;20479;-69
2022/03/06 00:29:19;;;;;;;33.15;18.23;;;;;;;;;;5032284;28;20459;-70
2022/03/06 00:31:45;;;;;;;31.13;16.23;;;;;;;;;;5028853;28;20498;-71
2022/03/06 00:34:11;;;;;;;27.25;13.75;;;;;;;;;;5013830;28;20030;-70
2022/03/06 00:36:37;;;;;;;24.52;13.93;;;;;;;;;;5012307;28;20076;-74
2022/03/06 00:39:04;;;;;;;23.13;13.38;;;;;;;;;;5012370;28;20034;-70
2022/03/06 00:41:30;;;;;;;24.20;14.77;;;;;;;;;;5012391;28;20065;-70
2022/03/06 00:43:56;;;;;;;27.20;15.82;;;;;;;;;;5012627;28;20622;-70
2022/03/06 00:46:22;;;;;;;27.92;17.23;;;;;;;;;;5028231;28;20029;-70
2022/03/06 00:48:48;;;;;;;28.20;15.35;;;;;;;;;;5031692;28;20430;-71
2022/03/06 00:51:14;;;;;;;25.65;15.00;;;;;;;;;;5031699;28;20115;-69
2022/03/06 00:53:41;;;;;;;23.27;13.88;;;;;;;;;;5028746;28;20030;-69
2022/03/06 00:56:07;;;;;;;25.00;14.18;;;;;;;;;;5012271;28;20030;-70
2022/03/06 00:58:34;;;;;;;24.63;12.75;;;;;;;;;;5012215;28;20399;-69
2022/03/06 01:01:00;;;;;;;23.08;11.77;;;;;;;;;;5012338;28;20117;-69
2022/03/06 01:03:26;;;;;;;21.13;11.77;;;;;;;;;;5011814;28;20117;-67
2022/03/06 01:05:52;;;;;;;22.60;11.30;;;;;;;;;;5011880;28;20063;-69
2022/03/06 01:08:18;;;;;;;20.15;11.52;;;;;;;;;;4994215;28;20121;-67
2022/03/06 01:10:45;;;;;;;21.83;12.75;;;;;;;;;;5018127;28;20022;-70
2022/03/06 01:13:12;;;;;;;21.95;11.75;;;;;;;;;;5030951;28;20032;-71
2022/03/06 01:15:39;;;;;;;21.15;12.13;;;;;;;;;;5031435;28;20467;-68
2022/03/06 01:18:06;;;;;;;23.75;12.10;;;;;;;;;;5031384;28;20502;-70
2022/03/06 01:20:32;;;;;;;20.13;11.55;;;;;;;;;;5031562;28;20025;-71
2022/03/06 01:22:58;;;;;;;21.65;10.52;;;;;;;;;;5031569;28;20034;-68
2022/03/06 01:25:24;;;;;;;22.02;11.90;;;;;;;;;;5031581;28;20048;-68
2022/03/06 01:27:50;;;;;;;20.80;11.73;;;;;;;;;;5031446;28;20049;-70
2022/03/06 01:30:17;;;;;;;20.88;12.15;;;;;;;;;;5031301;28;20060;-69
2022/03/06 01:32:43;;;;;;;19.42;11.27;;;;;;;;;;5031416;28;20025;-67
2022/03/06 01:35:09;;;;;;;20.25;10.55;;;;;;;;;;5031686;28;20026;-70
2022/03/06 01:37:35;;;;;;;21.50;11.18;;;;;;;;;;5031410;28;20053;-70
2022/03/06 01:40:02;;;;;;;22.90;12.43;;;;;;;;;;5031483;28;20053;-70
2022/03/06 01:42:28;;;;;;;20.15;11.18;;;;;;;;;;5031536;28;20155;-69
2022/03/06 01:44:54;;;;;;;20.52;10.55;;;;;;;;;;5030995;28;20025;-70
2022/03/06 01:47:39;;;;;;;21.77;11.93;;;;;;;;;;5031644;28;20029;-70
2022/03/06 01:50:06;;;;;;;19.00;10.82;;;;;;;;;;5031148;28;20032;-67
2022/03/06 01:52:32;;;;;;;18.17;10.07;;;;;;;;;;5031294;28;20040;-69
2022/03/06 01:54:58;;;;;;;17.00;10.38;;;;;;;;;;5030771;28;20029;-69
2022/03/06 01:57:24;;;;;;;20.00;11.10;;;;;;;;;;5030883;28;20024;-69
2022/03/06 01:59:50;;;;;;;18.73;11.18;;;;;;;;;;5030952;28;20472;-70
2022/03/06 02:02:16;;;;;;;20.13;10.98;;;;;;;;;;5031157;28;20109;-70
2022/03/06 02:04:42;;;;;;;18.60;11.95;;;;;;;;;;5030609;28;20041;-71
2022/03/06 02:07:08;;;;;;;20.00;12.82;;;;;;;;;;5031074;28;20037;-70
2022/03/06 02:09:34;;;;;;;19.38;11.00;;;;;;;;;;5030894;28;20036;-72
2022/03/06 02:14:45;;;;;;;18.67;10.82;;;;;;;;;;5031014;28;20045;-70
2022/03/06 02:17:11;;;;;;;23.20;12.52;;;;;;;;;;5030934;28;20495;-70
2022/03/06 02:19:52;;;;;;;19.00;11.07;;;;;;;;;;5031032;28;20033;-71
2022/03/06 02:22:22;;;;;;;17.17;10.90;;;;;;;;;;5031015;28;20037;-72
2022/03/06 02:24:48;;;;;;;18.75;10.93;;;;;;;;;;5033026;28;20116;-70
2022/03/06 02:27:14;;;;;;;21.25;11.80;;;;;;;;;;5034358;28;20037;-68
2022/03/06 02:29:41;;;;;;;20.65;11.45;;;;;;;;;;5034425;28;20080;-70
2022/03/06 02:32:09;;;;;;;17.20;10.93;;;;;;;;;;5016676;28;20036;-72
2022/03/06 02:34:35;;;;;;;20.23;10.25;;;;;;;;;;5034090;28;20113;-72
2022/03/06 02:37:01;;;;;;;16.73;9.43;;;;;;;;;;5034232;28;20033;-71
2022/03/06 02:39:27;;;;;;;15.18;9.25;;;;;;;;;;5034282;28;20606;-72
2022/03/06 02:41:53;;;;;;;16.50;8.85;;;;;;;;;;5034203;28;20097;-69
2022/03/06 02:44:19;;;;;;;15.98;8.63;;;;;;;;;;5034485;28;20033;-69
2022/03/06 02:46:45;;;;;;;16.38;9.02;;;;;;;;;;5033959;28;20034;-70
2022/03/06 02:49:13;;;;;;;17.42;9.52;;;;;;;;;;5034321;28;20040;-69
2022/03/06 02:51:40;;;;;;;15.48;9.50;;;;;;;;;;5034071;28;20037;-70
2022/03/06 02:54:06;;;;;;;19.55;9.25;;;;;;;;;;5015946;28;20044;-70
2022/03/06 02:56:32;;;;;;;14.75;8.68;;;;;;;;;;5034266;28;20171;-70
2022/03/06 02:58:58;;;;;;;17.95;11.20;;;;;;;;;;5034303;28;20109;-69
2022/03/06 03:01:25;;;;;;;18.17;9.77;;;;;;;;;;5033929;28;20032;-70
2022/03/06 03:03:51;;;;;;;18.92;9.85;;;;;;;;;;5033695;28;20045;-68
2022/03/06 03:06:17;;;;;;;16.15;8.60;;;;;;;;;;5038665;23;20073;-70
2022/03/06 03:08:43;;;;;;;19.25;9.95;;;;;;;;;;5013652;28;20099;-69
2022/03/06 03:11:09;;;;;;;16.75;8.57;;;;;;;;;;5024731;28;20029;-70
2022/03/06 03:13:35;;;;;;;14.38;9.13;;;;;;;;;;5032187;28;20064;-69
2022/03/06 03:16:02;;;;;;;18.95;9.05;;;;;;;;;;5047372;28;20025;-69
2022/03/06 03:18:29;;;;;;;16.08;9.35;;;;;;;;;;5053586;28;20407;-69
2022/03/06 03:20:55;;;;;;;15.80;8.68;;;;;;;;;;5069269;28;20040;-70
2022/03/06 03:23:21;;;;;;;14.48;8.82;;;;;;;;;;5053140;28;20025;-71
2022/03/06 03:25:50;;;;;;;19.85;9.35;;;;;;;;;;5053553;28;20021;-70
2022/03/06 03:28:17;;;;;;;16.48;8.88;;;;;;;;;;5037197;28;20108;-70
2022/03/06 03:30:43;;;;;;;16.42;9.65;;;;;;;;;;5033630;28;20029;-70
2022/03/06 03:33:09;;;;;;;17.92;9.25;;;;;;;;;;5033294;28;20026;-70
2022/03/06 03:35:35;;;;;;;16.63;9.52;;;;;;;;;;5032955;28;20022;-70
2022/03/06 03:38:01;;;;;;;18.42;10.15;;;;;;;;;;5048419;28;20052;-70
2022/03/06 03:40:27;;;;;;;16.45;9.35;;;;;;;;;;5033284;28;20036;-70
2022/03/06 03:42:53;;;;;;;16.45;9.43;;;;;;;;;;5033039;28;20435;-69
2022/03/06 03:45:19;;;;;;;16.67;9.70;;;;;;;;;;5034247;28;20025;-70
2022/03/06 03:47:45;;;;;;;16.90;10.07;;;;;;;;;;5036202;28;20083;-70
2022/03/06 03:50:11;;;;;;;14.07;8.77;;;;;;;;;;5035109;28;20353;-70
2022/03/06 03:52:37;;;;;;;15.75;7.95;;;;;;;;;;5033951;28;20033;-69
2022/03/06 03:55:03;;;;;;;14.45;8.55;;;;;;;;;;5032633;28;20025;-70
2022/03/06 03:57:29;;;;;;;15.63;9.35;;;;;;;;;;5032855;28;20029;-70
2022/03/06 03:59:55;;;;;;;11.88;8.05;;;;;;;;;;5032738;28;20029;-69
2022/03/06 04:02:21;;;;;;;13.55;8.50;;;;;;;;;;5032855;28;20029;-70
2022/03/06 04:04:46;;;;;;;15.45;8.07;;;;;;;;;;5047695;28;20029;-70
2022/03/06 04:07:12;;;;;;;15.00;10.35;;;;;;;;;;5048700;28;20061;-70
2022/03/06 04:09:38;;;;;;;17.25;8.43;;;;;;;;;;5033578;28;20034;-70
2022/03/06 04:12:05;;;;;;;13.77;8.07;;;;;;;;;;5051624;28;20532;-69
2022/03/06 04:14:31;;;;;;;14.65;9.10;;;;;;;;;;5052486;28;20154;-70
2022/03/06 04:16:56;;;;;;;17.23;9.35;;;;;;;;;;5052726;28;20103;-70
2022/03/06 04:19:23;;;;;;;16.95;9.45;;;;;;;;;;5052604;28;20162;-70
2022/03/06 04:21:48;;;;;;;16.15;9.82;;;;;;;;;;5052431;28;20498;-71
2022/03/06 04:24:15;;;;;;;15.40;8.68;;;;;;;;;;5052363;28;20051;-71
2022/03/06 04:26:41;;;;;;;14.88;9.40;;;;;;;;;;5049053;28;20472;-70
2022/03/06 04:29:07;;;;;;;15.77;8.73;;;;;;;;;;5032269;28;20071;-70
2022/03/06 04:31:33;;;;;;;17.20;8.98;;;;;;;;;;5032311;28;20033;-69
2022/03/06 04:33:59;;;;;;;17.25;8.82;;;;;;;;;;5031989;28;20471;-69
2022/03/06 04:36:25;;;;;;;21.30;10.35;;;;;;;;;;5031934;28;20041;-69
2022/03/06 04:38:52;;;;;;;17.10;9.23;;;;;;;;;;5032061;28;20472;-70
2022/03/06 04:41:18;;;;;;;15.52;9.52;;;;;;;;;;5032038;28;20475;-70
2022/03/06 04:43:44;;;;;;;21.30;10.25;;;;;;;;;;5031895;28;20169;-70
2022/03/06 04:46:10;;;;;;;19.25;11.25;;;;;;;;;;5031415;28;20025;-70
2022/03/06 04:48:36;;;;;;;25.08;12.32;;;;;;;;;;5032266;28;20399;-70
2022/03/06 04:51:02;;;;;;;23.85;12.82;;;;;;;;;;5032529;28;20060;-70
2022/03/06 04:53:29;;;;;;;20.38;11.80;;;;;;;;;;5032884;28;20049;-70
2022/03/06 04:55:55;;;;;;;26.17;12.13;;;;;;;;;;5032355;28;20232;-70
2022/03/06 04:58:21;;;;;;;26.15;11.88;;;;;;;;;;5031920;28;20376;-69
2022/03/06 05:00:47;;;;;;;20.65;12.52;;;;;;;;;;5047377;28;20029;-70
2022/03/06 05:03:13;;;;;;;24.90;12.20;;;;;;;;;;5031503;28;20026;-70
2022/03/06 05:05:39;;;;;;;20.58;12.10;;;;;;;;;;5047018;28;20376;-70
2022/03/06 05:08:05;;;;;;;18.88;11.88;;;;;;;;;;5032002;28;20030;-70
2022/03/06 05:10:31;;;;;;;20.30;11.23;;;;;;;;;;5037379;28;20437;-70
2022/03/06 05:12:57;;;;;;;20.50;11.93;;;;;;;;;;5051497;28;20020;-70
2022/03/06 05:15:23;;;;;;;18.92;12.95;;;;;;;;;;5051458;28;20464;-70
2022/03/06 05:17:49;;;;;;;19.70;11.32;;;;;;;;;;5051492;28;20399;-70
2022/03/06 05:20:15;;;;;;;24.33;12.27;;;;;;;;;;5051485;28;20025;-71
2022/03/06 05:22:41;;;;;;;24.98;12.02;;;;;;;;;;5051447;28;20120;-69
2022/03/06 05:25:08;;;;;;;24.92;12.23;;;;;;;;;;5051293;28;20021;-69
2022/03/06 05:27:34;;;;;;;19.88;11.35;;;;;;;;;;5041342;28;20059;-71
2022/03/06 05:30:00;;;;;;;21.00;12.77;;;;;;;;;;5032069;28;20030;-70
2022/03/06 05:32:26;;;;;;;21.20;11.30;;;;;;;;;;5031768;28;20396;-70
2022/03/06 05:34:52;;;;;;;18.27;10.82;;;;;;;;;;5031947;28;20022;-70
2022/03/06 05:37:18;;;;;;;19.77;11.90;;;;;;;;;;5032058;28;20440;-70
2022/03/06 05:39:44;;;;;;;18.48;11.18;;;;;;;;;;5031981;28;20029;-70
2022/03/06 05:42:10;;;;;;;18.65;10.68;;;;;;;;;;5032149;28;20065;-70
2022/03/06 05:44:36;;;;;;;18.15;10.77;;;;;;;;;;5031499;28;20088;-70
2022/03/06 05:47:02;;;;;;;18.60;10.25;;;;;;;;;;5032007;28;20108;-70
2022/03/06 05:49:28;;;;;;;21.77;11.20;;;;;;;;;;5047079;28;20029;-70
2022/03/06 05:51:54;;;;;;;15.43;8.80;;;;;;;;;;5032244;28;20117;-69
2022/03/06 05:54:20;;;;;;;17.55;10.50;;;;;;;;;;5031769;28;20464;-70
2022/03/06 05:56:46;;;;;;;15.35;8.75;;;;;;;;;;5031566;28;20025;-70
2022/03/06 05:59:12;;;;;;;18.60;11.05;;;;;;;;;;5034582;28;20471;-70
2022/03/06 06:01:38;;;;;;;14.63;9.07;;;;;;;;;;5035056;28;20125;-69
2022/03/06 06:04:04;;;;;;;17.58;10.13;;;;;;;;;;5050120;28;20503;-70
2022/03/06 06:06:30;;;;;;;16.45;9.85;;;;;;;;;;5035144;28;20037;-70
2022/03/06 06:08:56;;;;;;;18.83;9.80;;;;;;;;;;5035383;28;20490;-70
2022/03/06 06:11:23;;;;;;;15.52;8.98;;;;;;;;;;5047887;28;20032;-70
2022/03/06 06:13:49;;;;;;;14.90;9.18;;;;;;;;;;5054869;28;20106;-69
2022/03/06 06:16:15;;;;;;;15.95;9.35;;;;;;;;;;5054679;28;20108;-69
2022/03/06 06:18:41;;;;;;;16.05;9.05;;;;;;;;;;5070207;28;20083;-70
2022/03/06 06:21:08;;;;;;;15.02;8.98;;;;;;;;;;5055138;28;20029;-69
2022/03/06 06:23:34;;;;;;;16.15;8.38;;;;;;;;;;5070428;28;20033;-68
2022/03/06 06:26:00;;;;;;;17.70;8.75;;;;;;;;;;5055403;28;20031;-69
2022/03/06 06:28:26;;;;;;;16.42;8.40;;;;;;;;;;5037766;28;20029;-70
2022/03/06 06:30:52;;;;;;;15.48;8.50;;;;;;;;;;5034829;28;20025;-71
2022/03/06 06:33:18;;;;;;;15.50;8.07;;;;;;;;;;5034646;28;20026;-70
2022/03/06 06:35:44;;;;;;;14.27;7.50;;;;;;;;;;5034726;28;20057;-71
2022/03/06 06:38:10;;;;;;;14.52;7.78;;;;;;;;;;5034919;28;20029;-70
2022/03/06 06:40:36;;;;;;;18.02;7.68;;;;;;;;;;5034972;28;20071;-70
2022/03/06 06:43:02;;;;;;;17.23;7.57;;;;;;;;;;5034598;28;20471;-70
2022/03/06 06:45:28;;;;;;;14.30;7.43;;;;;;;;;;5034561;28;20036;-70
2022/03/06 06:47:54;;;;;;;15.40;7.80;;;;;;;;;;5050327;28;20029;-69
2022/03/06 06:50:20;;;;;;;13.88;7.15;;;;;;;;;;5035021;28;20414;-69
2022/03/06 06:52:46;;;;;;;14.32;6.90;;;;;;;;;;5050419;28;20029;-69
2022/03/06 06:55:12;;;;;;;13.63;7.70;;;;;;;;;;5035120;28;20021;-69
2022/03/06 06:57:38;;;;;;;13.20;7.18;;;;;;;;;;5034889;28;20029;-70
2022/03/06 07:00:05;;;;;;;11.98;6.68;;;;;;;;;;5034185;28;20118;-70
2022/03/06 07:02:31;;;;;;;14.20;6.38;;;;;;;;;;5034441;28;20032;-69
2022/03/06 07:04:57;;;;;;;12.38;6.10;;;;;;;;;;5033922;28;20041;-69
2022/03/06 07:07:24;;;;;;;14.50;6.57;;;;;;;;;;5049356;28;20034;-69
2022/03/06 07:09:50;;;;;;;13.65;6.85;;;;;;;;;;5033198;28;20391;-70
2022/03/06 07:12:16;;;;;;;13.02;6.22;;;;;;;;;;5053773;28;20151;-70
2022/03/06 07:14:42;;;;;;;12.82;6.75;;;;;;;;;;5053871;28;20059;-69
2022/03/06 07:17:07;;;;;;;12.15;6.85;;;;;;;;;;5053788;28;20104;-69
2022/03/06 07:19:34;;;;;;;11.80;5.82;;;;;;;;;;5053806;28;20029;-70
2022/03/06 07:22:00;;;;;;;13.07;6.57;;;;;;;;;;5053880;28;20025;-70
2022/03/06 07:24:26;;;;;;;10.15;5.72;;;;;;;;;;5053445;28;20036;-69
2022/03/06 07:26:53;;;;;;;11.25;6.10;;;;;;;;;;5048756;28;20100;-71
2022/03/06 07:29:19;;;;;;;11.05;6.20;;;;;;;;;;5033312;28;20476;-69
2022/03/06 07:31:45;;;;;;;9.57;6.05;;;;;;;;;;5033341;28;20029;-69
2022/03/06 07:34:11;;;;;;;12.18;6.10;;;;;;;;;;5048470;28;20083;-70
2022/03/06 07:36:37;;;;;;;10.57;6.70;;;;;;;;;;5033322;28;20032;-70
2022/03/06 07:39:05;;;;;;;14.57;6.28;;;;;;;;;;5048676;28;20076;-70
2022/03/06 07:41:31;;;;;;;10.27;5.88;;;;;;;;;;5033194;28;20467;-68
2022/03/06 07:43:57;;;;;;;13.38;7.07;;;;;;;;;;5033179;28;20079;-69
2022/03/06 07:46:23;;;;;;;11.45;6.30;;;;;;;;;;5033288;28;20029;-69
2022/03/06 07:48:49;;;;;;;12.80;6.13;;;;;;;;;;5033216;28;20109;-70
2022/03/06 07:51:15;;;;;;;11.25;6.80;;;;;;;;;;5033255;28;20438;-70
2022/03/06 07:53:41;;;;;;;13.68;6.78;;;;;;;;;;5033190;28;20037;-70
2022/03/06 07:56:07;;;;;;;12.55;6.05;;;;;;;;;;5048562;28;20029;-70
2022/03/06 07:58:33;;;;;;;13.98;6.53;;;;;;;;;;5033037;28;20029;-70
2022/03/06 08:00:59;;;;;;;17.05;7.15;;;;;;;;;;5032931;28;20030;-70
2022/03/06 08:03:25;;;;;;;13.68;6.63;;;;;;;;;;5032567;28;20084;-70
2022/03/06 08:05:51;;;;;;;12.20;6.50;;;;;;;;;;5032821;28;20083;-69
2022/03/06 08:08:17;;;;;;;13.52;6.47;;;;;;;;;;5032724;28;20017;-70
2022/03/06 08:10:43;;;;;;;11.20;6.25;;;;;;;;;;5039775;28;20418;-70
2022/03/06 08:13:09;;;;;;;12.20;5.90;;;;;;;;;;5047836;28;20021;-69
2022/03/06 08:15:36;;;;;;;9.75;5.95;;;;;;;;;;5031463;28;20395;-69
2022/03/06 08:18:02;;;;;;;11.70;6.00;;;;;;;;;;5032927;28;20021;-70
2022/03/06 08:20:28;;;;;;;14.98;6.75;;;;;;;;;;5033002;28;20586;-70
2022/03/06 08:22:54;;;;;;;11.88;6.38;;;;;;;;;;5032219;28;20030;-70
2022/03/06 08:25:20;;;;;;;11.95;6.07;;;;;;;;;;5032339;28;20056;-71
2022/03/06 08:27:46;;;;;;;9.43;5.65;;;;;;;;;;5044420;28;20021;-73
2022/03/06 08:30:13;;;;;;;11.55;5.97;;;;;;;;;;5067894;28;20033;-74
2022/03/06 08:32:40;;;;;;;11.27;5.53;;;;;;;;;;5052200;28;20013;-70
2022/03/06 08:35:07;;;;;;;9.38;5.78;;;;;;;;;;5051814;28;20021;-70
2022/03/06 08:37:33;;;;;;;12.82;5.65;;;;;;;;;;5052329;28;20449;-70
2022/03/06 08:39:59;;;;;;;10.70;5.75;;;;;;;;;;5050218;28;20048;-69
2022/03/06 08:42:25;;;;;;;10.40;6.25;;;;;;;;;;5051946;28;20552;-71
2022/03/06 08:44:52;;;;;;;12.13;6.63;;;;;;;;;;5051872;28;20029;-70
2022/03/06 08:47:18;;;;;;;9.45;5.75;;;;;;;;;;5052521;28;20029;-70
2022/03/06 08:49:44;;;;;;;13.13;6.03;;;;;;;;;;5052208;28;20025;-71
2022/03/06 08:52:11;;;;;;;8.60;5.18;;;;;;;;;;5051981;28;20049;-70
2022/03/06 08:54:37;;;;;;;8.73;5.50;;;;;;;;;;5051670;28;20031;-70
2022/03/06 08:57:03;;;;;;;12.15;6.43;;;;;;;;;;5051977;28;20028;-71
2022/03/06 08:59:29;;;;;;;10.90;5.53;;;;;;;;;;5051858;28;20040;-71
2022/03/06 09:01:56;;;;;;;8.85;5.22;;;;;;;;;;5051789;28;20029;-71
2022/03/06 09:04:23;;;;;;;9.90;5.95;;;;;;;;;;5051732;28;20341;-70
2022/03/06 09:06:49;;;;;;;11.90;5.32;;;;;;;;;;5091514;22;20535;-68
2022/03/06 09:09:15;;;;;;;10.55;5.78;;;;;;;;;;5070874;28;20116;-66
2022/03/06 09:11:41;;;;;;;8.52;4.95;;;;;;;;;;5071620;28;20054;-67
2022/03/06 09:14:07;;;;;;;8.15;4.72;;;;;;;;;;5071149;28;20497;-66
2022/03/06 09:16:33;;;;;;;7.78;5.00;;;;;;;;;;5071370;28;20028;-68
2022/03/06 09:19:01;;;;;;;9.95;5.00;;;;;;;;;;5071338;28;20102;-66
2022/03/06 09:21:28;;;;;;;6.07;4.60;;;;;;;;;;5071289;28;20036;-68
2022/03/06 09:23:54;;;;;;;8.52;5.50;;;;;;;;;;5070998;28;20108;-66
2022/03/06 09:26:20;;;;;;;7.50;4.45;;;;;;;;;;5053187;28;20074;-68
2022/03/06 09:28:46;;;;;;;8.52;3.85;;;;;;;;;;5071090;28;20036;-69
2022/03/06 09:31:12;;;;;;;6.07;3.70;;;;;;;;;;5071212;28;20025;-66
2022/03/06 09:33:38;;;;;;;8.73;4.72;;;;;;;;;;5073818;28;20021;-71
2022/03/06 09:36:04;;;;;;;7.43;3.90;;;;;;;;;;5056993;28;20119;-67
2022/03/06 09:38:36;;;;;;;8.00;5.18;;;;;;;;;;5075273;28;20029;-71
2022/03/06 09:41:04;;;;;;;7.35;4.40;;;;;;;;;;5075417;28;20091;-70
2022/03/06 09:43:59;;;;;;;7.32;3.78;;;;;;;;;;5056950;28;20406;-69
2022/03/06 09:46:25;;;;;;;9.43;4.28;;;;;;;;;;5055397;28;20024;-70
2022/03/06 09:48:52;;;;;;;7.13;3.78;;;;;;;;;;5074842;28;20024;-71
2022/03/06 09:51:18;;;;;;;7.15;3.95;;;;;;;;;;5056772;28;20024;-70
2022/03/06 09:53:44;;;;;;;6.22;3.70;;;;;;;;;;5056494;28;20040;-69
2022/03/06 09:56:10;;;;;;;8.57;4.78;;;;;;;;;;5074763;28;20020;-71
2022/03/06 09:58:36;;;;;;;9.23;4.07;;;;;;;;;;5056919;28;20486;-69
2022/03/06 10:01:02;;;;;;;9.05;4.40;;;;;;;;;;5074782;28;20032;-69
2022/03/06 10:03:30;;;;;;;7.22;4.03;;;;;;;;;;5074311;28;20382;-69
2022/03/06 10:05:56;;;;;;;7.47;4.60;;;;;;;;;;5074729;28;20086;-70
2022/03/06 10:08:22;;;;;;;7.35;3.45;;;;;;;;;;5056679;28;20416;-71
2022/03/06 10:10:58;;;;;;;6.13;4.20;;;;;;;;;;5074646;28;20371;-67
2022/03/06 10:13:32;;;;;;;6.57;4.47;;;;;;;;;;5074311;28;20025;-69
2022/03/06 10:15:57;;;;;;;11.25;6.13;;;;;;;;;;5074684;28;20024;-71
2022/03/06 10:18:23;;;;;;;49.47;24.67;;;;;;;;;;5075081;28;20466;-70
2022/03/06 10:20:50;;;;;;;16.95;8.48;;;;;;;;;;5074252;28;20078;-68
2022/03/06 10:23:25;;;;;;;18.40;9.68;;;;;;;;;;5074186;28;20031;-68
2022/03/06 10:26:24;;;;;;;15.48;8.57;;;;;;;;;;5074587;28;20020;-69
2022/03/06 10:28:50;;;;;;;9.73;6.28;;;;;;;;;;5021099;28;20041;-69
2022/03/06 10:31:16;;;;;;;19.90;8.43;;;;;;;;;;5054277;28;20104;-67
2022/03/06 10:33:54;;;;;;;9.70;5.78;;;;;;;;;;5036337;28;20025;-68
2022/03/06 10:36:28;;;;;;;11.10;6.28;;;;;;;;;;5053914;28;20092;-66
2022/03/06 10:38:54;;;;;;;11.77;6.55;;;;;;;;;;5054282;28;20551;-67
2022/03/06 10:41:20;;;;;;;19.75;10.05;;;;;;;;;;5036251;28;20434;-67
2022/03/06 10:43:48;;;;;;;11.95;6.35;;;;;;;;;;5053631;28;20021;-68
2022/03/06 10:46:18;;;;;;;19.23;10.25;;;;;;;;;;5053828;28;20032;-65
2022/03/06 10:48:53;;;;;;;17.65;8.00;;;;;;;;;;5053741;28;20025;-68
2022/03/06 10:51:20;;;;;;;9.65;5.63;;;;;;;;;;5053960;28;20025;-64
2022/03/06 10:53:51;;;;;;;16.55;8.00;;;;;;;;;;5053785;28;20021;-65
2022/03/06 10:56:17;;;;;;;12.85;6.90;;;;;;;;;;5036032;28;20025;-68
2022/03/06 10:58:44;;;;;;;10.43;6.07;;;;;;;;;;5053778;28;20036;-69
2022/03/06 11:01:10;;;;;;;8.48;6.07;;;;;;;;;;5035798;28;20144;-68
2022/03/06 11:03:36;;;;;;;8.85;5.55;;;;;;;;;;5053438;28;20033;-68
2022/03/06 11:06:04;;;;;;;11.65;5.85;;;;;;;;;;5053348;28;20040;-67
2022/03/06 11:08:30;;;;;;;12.05;7.00;;;;;;;;;;5053690;28;20047;-68
2022/03/06 11:10:56;;;;;;;15.02;8.15;;;;;;;;;;5062303;28;20020;-67
2022/03/06 11:13:23;;;;;;;11.40;7.45;;;;;;;;;;5073152;28;20059;-68
2022/03/06 11:15:49;;;;;;;12.70;6.50;;;;;;;;;;5073166;28;20029;-67
2022/03/06 11:18:16;;;;;;;10.05;6.22;;;;;;;;;;5073621;28;20474;-67
2022/03/06 11:20:43;;;;;;;14.50;7.55;;;;;;;;;;5073573;28;20029;-67
2022/03/06 11:23:22;;;;;;;10.75;6.63;;;;;;;;;;5073546;28;20100;-67
2022/03/06 11:26:06;;;;;;;13.60;7.47;;;;;;;;;;5073384;28;20485;-67
2022/03/06 11:28:36;;;;;;;12.93;7.32;;;;;;;;;;5073230;28;20032;-68
2022/03/06 11:31:02;;;;;;;12.25;7.57;;;;;;;;;;5055133;28;20505;-67
2022/03/06 11:33:28;;;;;;;11.18;6.85;;;;;;;;;;5072822;28;20017;-68
2022/03/06 11:35:55;;;;;;;11.38;6.80;;;;;;;;;;5073140;28;20020;-68
2022/03/06 11:38:21;;;;;;;11.48;6.95;;;;;;;;;;5073081;28;20028;-68
2022/03/06 11:40:49;;;;;;;10.10;6.68;;;;;;;;;;5073098;28;20474;-67
2022/03/06 11:43:27;;;;;;;12.93;7.00;;;;;;;;;;5072717;28;20021;-66
2022/03/06 11:46:04;;;;;;;13.35;7.70;;;;;;;;;;5073042;28;20025;-67
2022/03/06 11:48:33;;;;;;;10.65;6.95;;;;;;;;;;5073035;28;20035;-67
2022/03/06 11:51:18;;;;;;;10.73;6.45;;;;;;;;;;5072702;28;20493;-66
2022/03/06 11:53:49;;;;;;;10.30;6.65;;;;;;;;;;5072466;28;20073;-67
2022/03/06 11:56:35;;;;;;;16.92;8.88;;;;;;;;;;5072325;28;20089;-68
2022/03/06 11:59:01;;;;;;;10.57;6.82;;;;;;;;;;5072569;28;20390;-68
2022/03/06 12:01:28;;;;;;;11.45;6.72;;;;;;;;;;5072999;28;20024;-67
2022/03/06 12:03:55;;;;;;;14.13;8.23;;;;;;;;;;5072248;28;20469;-67
2022/03/06 12:06:23;;;;;;;15.55;7.38;;;;;;;;;;5072270;28;20039;-67
2022/03/06 12:08:52;;;;;;;13.23;6.75;;;;;;;;;;5072310;28;20020;-68
2022/03/06 12:11:19;;;;;;;9.63;5.97;;;;;;;;;;5072094;28;20060;-67
2022/03/06 12:13:49;;;;;;;10.65;6.20;;;;;;;;;;5072021;28;20553;-69
2022/03/06 12:16:16;;;;;;;8.48;5.55;;;;;;;;;;5072201;28;20017;-69
2022/03/06 12:19:01;;;;;;;9.77;5.97;;;;;;;;;;5071941;28;20029;-67
2022/03/06 12:21:36;;;;;;;8.88;5.47;;;;;;;;;;5072408;28;20389;-67
2022/03/06 12:24:12;;;;;;;10.43;6.15;;;;;;;;;;5053654;28;20506;-68
2022/03/06 12:26:44;;;;;;;9.85;6.00;;;;;;;;;;5072329;28;20025;-68
2022/03/06 12:29:30;;;;;;;8.10;5.40;;;;;;;;;;5072400;28;20028;-67
2022/03/06 12:31:56;;;;;;;12.23;6.07;;;;;;;;;;5071534;28;20078;-68
2022/03/06 12:34:36;;;;;;;11.93;7.03;;;;;;;;;;5071383;28;20394;-68
2022/03/06 12:37:02;;;;;;;14.95;6.53;;;;;;;;;;5071947;28;20032;-67
2022/03/06 12:39:29;;;;;;;12.55;6.18;;;;;;;;;;5071747;28;20032;-66
2022/03/06 12:41:55;;;;;;;10.55;6.07;;;;;;;;;;5071682;28;20032;-67
2022/03/06 12:44:25;;;;;;;9.55;5.70;;;;;;;;;;5071259;28;20059;-66
2022/03/06 12:46:51;;;;;;;9.90;6.03;;;;;;;;;;5071788;28;20459;-68
2022/03/06 12:49:17;;;;;;;9.65;5.53;;;;;;;;;;5053729;28;20020;-68
2022/03/06 12:51:43;;;;;;;8.68;5.10;;;;;;;;;;5071532;28;20440;-66
2022/03/06 12:54:20;;;;;;;10.60;5.55;;;;;;;;;;5071430;28;20024;-68
2022/03/06 12:56:46;;;;;;;11.25;5.57;;;;;;;;;;5071658;28;20016;-67
2022/03/06 12:59:17;;;;;;;7.03;4.50;;;;;;;;;;5053784;28;20024;-68
2022/03/06 13:01:44;;;;;;;6.10;4.10;;;;;;;;;;5053730;28;20428;-67
2022/03/06 13:04:10;;;;;;;7.18;4.28;;;;;;;;;;5071479;28;20495;-67
2022/03/06 13:06:37;;;;;;;8.90;4.93;;;;;;;;;;5071747;28;20118;-67
2022/03/06 13:09:03;;;;;;;5.85;4.15;;;;;;;;;;5070889;28;20044;-68
2022/03/06 13:11:30;;;;;;;8.13;4.97;;;;;;;;;;5053478;28;20048;-67
2022/03/06 13:14:00;;;;;;;10.45;4.63;;;;;;;;;;5053272;28;20523;-69
2022/03/06 13:16:26;;;;;;;9.33;4.90;;;;;;;;;;5071599;28;20361;-68
2022/03/06 13:18:57;;;;;;;5.43;3.72;;;;;;;;;;5071610;28;20263;-67
2022/03/06 13:21:25;;;;;;;8.45;4.18;;;;;;;;;;5071445;28;20067;-65
2022/03/06 13:24:03;;;;;;;5.47;3.88;;;;;;;;;;5052993;28;20033;-68
2022/03/06 13:26:29;;;;;;;6.18;3.83;;;;;;;;;;5071136;28;20029;-67
2022/03/06 13:28:55;;;;;;;4.47;3.80;;;;;;;;;;5071324;28;20478;-68
2022/03/06 13:31:22;;;;;;;6.25;4.03;;;;;;;;;;5053399;28;20112;-68
2022/03/06 13:34:00;;;;;;;8.38;4.10;;;;;;;;;;5071114;28;20103;-68
2022/03/06 13:36:27;;;;;;;7.47;4.25;;;;;;;;;;5071155;28;20017;-68
2022/03/06 13:39:05;;;;;;;9.18;5.00;;;;;;;;;;5071203;28;20080;-69
2022/03/06 13:41:31;;;;;;;6.15;3.88;;;;;;;;;;5069414;28;20115;-69
2022/03/06 13:43:57;;;;;;;6.85;4.07;;;;;;;;;;5069123;28;20021;-68
2022/03/06 13:46:24;;;;;;;6.57;4.03;;;;;;;;;;5051587;28;20448;-67
2022/03/06 13:48:50;;;;;;;4.25;3.70;;;;;;;;;;5060967;28;20119;-68
2022/03/06 13:51:20;;;;;;;8.13;3.72;;;;;;;;;;5068891;28;20431;-67
2022/03/06 13:53:56;;;;;;;6.80;3.65;;;;;;;;;;5063322;28;20025;-68
2022/03/06 13:56:36;;;;;;;12.15;4.28;;;;;;;;;;5040910;28;20049;-67
2022/03/06 13:59:03;;;;;;;5.57;3.95;;;;;;;;;;5050759;28;20032;-68
2022/03/06 14:01:29;;;;;;;7.55;4.50;;;;;;;;;;5051182;28;20434;-67
2022/03/06 14:03:59;;;;;;;6.70;4.22;;;;;;;;;;5049416;28;20028;-67
2022/03/06 14:06:40;;;;;;;11.67;5.17;;;;;;;;;;5050500;28;20178;-68
2022/03/06 14:09:06;;;;;;;;;;;;;;;;;;5031808;28;20091;-68
2022/03/06 14:11:32;;;;;;;6.20;4.13;;;;;;;;;;5062610;28;19904;-69
2022/03/06 14:13:59;;;;;;;7.68;3.97;;;;;;;;;;5049080;28;20024;-68
2022/03/06 14:16:26;;;;;;;5.30;3.90;;;;;;;;;;5067147;28;20025;-68
2022/03/06 14:19:02;;;;;;;7.30;4.22;;;;;;;;;;5068048;28;20097;-66
2022/03/06 14:21:34;;;;;;;5.72;4.15;;;;;;;;;;5071570;28;20490;-68
2022/03/06 14:24:05;;;;;;;6.05;3.88;;;;;;;;;;5072113;28;20056;-70
2022/03/06 14:26:32;;;;;;;7.80;3.13;;;;;;;;;;5073276;28;20025;-66
2022/03/06 14:28:58;;;;;;;6.60;4.22;;;;;;;;;;5074073;28;20024;-66
2022/03/06 14:31:24;;;;;;;4.55;3.65;;;;;;;;;;5074364;28;20020;-69